Time;durP1;ratioP1;P1;durP2;ratioP2;P2;SDS_P1;SDS_P2;PMS_P1;PMS_P2;Temp;Humidity;BMP_temperature;BMP_pressure;BME280_temperature;BME280_humidity;BME280_pressure;Samples;Min_cycle;Max_cycle;Signal;HPM_P1;HPM_P2
2022/03/11 00:00:38;;;;;;;46.63;21.45;;;-0.50;1.00;;;;;;5017907;28;20091;-76
2022/03/11 00:03:10;;;;;;;38.90;18.38;;;-0.60;1.00;;;;;;5018974;28;20049;-76
2022/03/11 00:05:38;;;;;;;65.68;27.90;;;-0.60;1.00;;;;;;5019433;28;20429;-76
2022/03/11 00:08:06;;;;;;;21.35;11.90;;;-0.50;1.00;;;;;;5020049;28;20067;-76
2022/03/11 00:10:34;;;;;;;28.88;13.27;;;-0.50;1.00;;;;;;5040190;28;20116;-76
2022/03/11 00:13:02;;;;;;;33.42;16.45;;;-0.60;1.00;;;;;;5026812;28;20045;-75
2022/03/11 00:15:29;;;;;;;34.67;15.30;;;-0.60;1.00;;;;;;5058432;28;20101;-75
2022/03/11 00:17:58;;;;;;;32.72;16.08;;;-0.60;1.00;;;;;;5058414;28;20037;-76
2022/03/11 00:20:26;;;;;;;29.40;15.13;;;-0.60;1.00;;;;;;5072056;28;20116;-76
2022/03/11 00:22:55;;;;;;;27.40;14.40;;;-0.60;1.00;;;;;;5057742;28;20049;-76
2022/03/11 00:25:22;;;;;;;34.55;15.52;;;-0.60;1.00;;;;;;5057411;28;20133;-75
2022/03/11 00:27:50;;;;;;;22.70;11.90;;;-0.60;1.00;;;;;;5035682;28;20072;-76
2022/03/11 00:30:19;;;;;;;28.10;13.85;;;-0.60;1.00;;;;;;5012355;28;20045;-75
2022/03/11 00:32:48;;;;;;;26.65;13.05;;;-0.60;1.00;;;;;;5013486;28;20132;-75
2022/03/11 00:35:17;;;;;;;26.77;12.20;;;-0.50;1.00;;;;;;5049952;28;20105;-76
2022/03/11 00:37:45;;;;;;;25.85;13.68;;;-0.60;1.00;;;;;;5032400;28;20053;-75
2022/03/11 00:40:13;;;;;;;23.77;12.48;;;-0.60;1.00;;;;;;5053622;28;20045;-74
2022/03/11 00:42:43;;;;;;;25.55;14.05;;;-0.60;1.00;;;;;;5022847;28;20103;-75
2022/03/11 00:45:12;;;;;;;23.55;13.20;;;-0.60;1.00;;;;;;5023118;28;20045;-75
2022/03/11 00:47:40;;;;;;;28.15;14.27;;;-0.60;1.00;;;;;;5023475;28;20156;-75
2022/03/11 00:50:09;;;;;;;25.60;13.40;;;-0.60;1.00;;;;;;5022290;28;20050;-74
2022/03/11 00:52:40;;;;;;;26.35;13.65;;;-0.50;1.00;;;;;;5023843;28;20046;-75
2022/03/11 00:55:10;;;;;;;24.40;12.02;;;-0.50;1.00;;;;;;5022051;28;20042;-75
2022/03/11 00:57:39;;;;;;;20.90;10.98;;;-0.60;1.00;;;;;;5006214;28;20042;-75
2022/03/11 01:00:08;;;;;;;31.02;18.35;;;-0.60;1.00;;;;;;5022308;28;20100;-75
2022/03/11 01:02:37;;;;;;;37.50;19.42;;;-0.60;1.00;;;;;;5007607;28;20524;-74
2022/03/11 01:05:06;;;;;;;33.08;18.27;;;-0.60;1.00;;;;;;5021751;28;20119;-75
2022/03/11 01:07:35;;;;;;;26.30;13.15;;;-0.60;1.00;;;;;;5030312;28;20108;-75
2022/03/11 01:10:05;;;;;;;42.35;17.30;;;-0.60;1.00;;;;;;5041635;28;20369;-75
2022/03/11 01:12:33;;;;;;;30.60;15.88;;;-0.60;1.00;;;;;;5022529;28;20042;-75
2022/03/11 01:15:00;;;;;;;24.67;14.35;;;-0.70;1.00;;;;;;5023995;28;20072;-75
2022/03/11 01:17:28;;;;;;;26.98;12.23;;;-0.70;1.00;;;;;;5036650;28;20049;-75
2022/03/11 01:19:56;;;;;;;25.73;14.93;;;-0.70;1.00;;;;;;5034799;28;20049;-75
2022/03/11 01:22:25;;;;;;;25.55;14.00;;;-0.60;1.00;;;;;;5031899;28;20050;-75
2022/03/11 01:24:53;;;;;;;46.22;23.48;;;-0.60;1.00;;;;;;5031971;28;20056;-76
2022/03/11 01:27:23;;;;;;;46.03;23.30;;;-0.60;1.00;;;;;;5031757;28;20053;-75
2022/03/11 01:29:51;;;;;;;84.35;41.13;;;-0.70;1.00;;;;;;5020231;28;20046;-75
2022/03/11 01:32:19;;;;;;;50.08;23.92;;;-0.70;1.00;;;;;;5020547;28;20050;-75
2022/03/11 01:34:47;;;;;;;66.57;31.48;;;-0.80;1.00;;;;;;5040236;28;20067;-75
2022/03/11 01:37:15;;;;;;;99.60;48.50;;;-0.90;1.00;;;;;;5040444;28;20095;-76
2022/03/11 01:39:43;;;;;;;96.65;48.90;;;-1.00;1.00;;;;;;5029303;28;20053;-75
2022/03/11 01:42:12;;;;;;;111.22;54.72;;;-1.10;1.00;;;;;;5035003;28;20041;-75
2022/03/11 01:44:40;;;;;;;114.40;51.90;;;-1.10;1.00;;;;;;5018149;28;20084;-75
2022/03/11 01:47:08;;;;;;;101.80;50.10;;;-1.20;1.00;;;;;;5017724;28;20048;-75
2022/03/11 01:49:35;;;;;;;97.28;48.30;;;-1.30;1.00;;;;;;5035878;28;20099;-75
2022/03/11 01:52:04;;;;;;;96.72;47.05;;;-1.30;1.00;;;;;;5036242;28;20056;-76
2022/03/11 01:54:31;;;;;;;90.95;49.05;;;-1.50;1.00;;;;;;5018794;28;20045;-74
2022/03/11 01:56:59;;;;;;;95.68;50.60;;;-1.70;1.00;;;;;;5043045;28;20120;-76
2022/03/11 01:59:27;;;;;;;94.43;50.58;;;-1.70;1.00;;;;;;5026497;28;20049;-76
2022/03/11 02:01:55;;;;;;;95.85;48.85;;;-1.70;1.00;;;;;;5042967;28;20044;-76
2022/03/11 02:04:23;;;;;;;82.32;42.38;;;-1.70;1.00;;;;;;5044283;28;20041;-76
2022/03/11 02:06:51;;;;;;;73.90;40.45;;;-1.90;1.00;;;;;;5040685;28;20048;-76
2022/03/11 02:09:19;;;;;;;73.70;40.92;;;-1.90;1.00;;;;;;5037778;28;20060;-76
2022/03/11 02:11:47;;;;;;;70.82;38.90;;;-2.00;1.00;;;;;;5017474;28;20132;-76
2022/03/11 02:14:14;;;;;;;65.35;36.22;;;-2.00;1.00;;;;;;5034499;28;20072;-76
2022/03/11 02:16:42;;;;;;;68.22;38.35;;;-2.00;1.00;;;;;;5016587;28;20049;-76
2022/03/11 02:19:12;;;;;;;77.95;43.35;;;-2.00;1.00;;;;;;5029316;28;20476;-76
2022/03/11 02:21:48;;;;;;;83.70;47.03;;;-2.00;1.00;;;;;;5014554;28;20536;-76
2022/03/11 02:24:19;;;;;;;73.18;41.00;;;-2.10;1.00;;;;;;5013406;28;20050;-76
2022/03/11 02:26:47;;;;;;;65.68;36.45;;;-2.10;1.00;;;;;;5025226;28;20049;-76
2022/03/11 02:29:14;;;;;;;74.65;39.70;;;-2.20;1.00;;;;;;5034945;28;20056;-76
2022/03/11 02:31:43;;;;;;;75.00;41.83;;;-2.20;1.00;;;;;;5016753;28;20041;-76
2022/03/11 02:34:11;;;;;;;72.32;40.30;;;-2.20;1.00;;;;;;5007148;28;20068;-76
2022/03/11 02:36:38;;;;;;;70.15;39.72;;;-2.30;1.00;;;;;;4996843;28;20046;-75
2022/03/11 02:39:07;;;;;;;72.15;38.85;;;-2.40;1.00;;;;;;5025478;28;20069;-76
2022/03/11 02:41:41;;;;;;;68.78;37.53;;;-2.60;1.00;;;;;;5033227;28;20049;-75
2022/03/11 02:44:08;;;;;;;61.50;35.20;;;-2.60;1.00;;;;;;5034090;28;20142;-74
2022/03/11 02:46:36;;;;;;;62.47;33.80;;;-2.60;1.00;;;;;;5027053;28;20068;-75
2022/03/11 02:49:04;;;;;;;71.95;36.03;;;-2.60;1.00;;;;;;5018887;28;20052;-75
2022/03/11 02:51:32;;;;;;;64.65;35.08;;;-2.50;1.00;;;;;;5045098;28;20128;-75
2022/03/11 02:54:00;;;;;;;62.72;35.55;;;-2.50;1.00;;;;;;5026140;28;20095;-74
2022/03/11 02:56:28;;;;;;;44.72;27.15;;;-2.50;1.00;;;;;;5016435;28;20497;-74
2022/03/11 02:58:57;;;;;;;45.13;24.80;;;-2.60;1.00;;;;;;5017239;28;20037;-75
2022/03/11 03:01:24;;;;;;;58.55;31.38;;;-2.60;1.00;;;;;;5034151;28;20041;-75
2022/03/11 03:03:52;;;;;;;50.92;29.67;;;-2.60;1.00;;;;;;5033675;28;20056;-76
2022/03/11 03:06:20;;;;;;;51.38;29.52;;;-2.70;1.00;;;;;;5014840;28;20038;-76
2022/03/11 03:08:47;;;;;;;70.00;38.45;;;-2.70;1.00;;;;;;5008158;28;20193;-76
2022/03/11 03:11:15;;;;;;;60.63;34.38;;;-2.80;1.00;;;;;;5034306;28;20480;-75
2022/03/11 03:13:42;;;;;;;53.20;30.83;;;-2.80;1.00;;;;;;5016360;28;20041;-76
2022/03/11 03:16:12;;;;;;;52.22;31.00;;;-2.80;1.00;;;;;;5015960;28;20144;-75
2022/03/11 03:18:39;;;;;;;52.00;31.20;;;-3.00;1.00;;;;;;5033696;28;20501;-76
2022/03/11 03:21:08;;;;;;;50.65;30.35;;;-3.00;1.00;;;;;;5016529;28;20047;-76
2022/03/11 03:23:36;;;;;;;66.55;38.58;;;-3.00;1.00;;;;;;5033780;28;20410;-74
2022/03/11 03:26:04;;;;;;;61.78;37.28;;;-3.00;1.00;;;;;;5012508;28;20527;-76
2022/03/11 03:28:32;;;;;;;42.05;26.60;;;-3.10;1.00;;;;;;5013091;28;20112;-75
2022/03/11 03:31:00;;;;;;;37.13;23.35;;;-3.00;1.00;;;;;;5012946;28;20115;-75
2022/03/11 03:33:31;;;;;;;43.92;25.13;;;-3.10;1.00;;;;;;5012692;28;20050;-75
2022/03/11 03:35:59;;;;;;;55.47;32.00;;;-3.10;1.00;;;;;;5017601;28;20045;-76
2022/03/11 03:38:27;;;;;;;65.57;36.58;;;-3.10;1.00;;;;;;5016335;28;20412;-76
2022/03/11 03:40:55;;;;;;;63.10;37.40;;;-3.20;1.00;;;;;;5016455;28;20046;-76
2022/03/11 03:43:22;;;;;;;59.35;34.58;;;-3.40;1.00;;;;;;5016590;28;20078;-75
2022/03/11 03:45:50;;;;;;;73.75;42.28;;;-3.40;1.00;;;;;;5023438;28;20049;-75
2022/03/11 03:48:17;;;;;;;71.82;41.17;;;-3.50;1.00;;;;;;5022055;28;20400;-76
2022/03/11 03:50:46;;;;;;;64.32;36.40;;;-3.50;1.00;;;;;;5018058;28;20065;-75
2022/03/11 03:53:14;;;;;;;74.03;39.42;;;-3.50;1.00;;;;;;5017172;28;20081;-76
2022/03/11 03:55:41;;;;;;;48.17;25.50;;;-3.40;1.00;;;;;;5018242;28;20103;-76
2022/03/11 03:58:10;;;;;;;44.60;25.40;;;-3.50;1.00;;;;;;5018231;28;20069;-75
2022/03/11 04:00:37;;;;;;;52.33;28.08;;;-3.50;1.00;;;;;;5019447;28;20497;-75
2022/03/11 04:03:05;;;;;;;58.78;32.75;;;-3.50;1.00;;;;;;5019569;28;20045;-75
2022/03/11 04:05:32;;;;;;;59.95;33.53;;;-3.60;1.00;;;;;;4999741;28;20065;-75
2022/03/11 04:08:01;;;;;;;58.65;34.95;;;-3.70;1.00;;;;;;5008121;28;20046;-75
2022/03/11 04:10:29;;;;;;;62.83;36.58;;;-3.70;1.00;;;;;;5017788;28;20049;-75
2022/03/11 04:12:57;;;;;;;70.40;37.83;;;-3.70;1.00;;;;;;5017054;28;20525;-76
2022/03/11 04:15:24;;;;;;;67.35;38.03;;;-3.60;1.00;;;;;;5005033;28;20387;-76
2022/03/11 04:17:52;;;;;;;74.75;42.20;;;-3.70;1.00;;;;;;4996435;28;20125;-76
2022/03/11 04:20:19;;;;;;;82.95;46.72;;;-3.70;15.30;;;;;;5011942;28;20050;-76
2022/03/11 04:22:47;;;;;;;76.25;44.35;;;-3.70;23.30;;;;;;5017211;28;20056;-76
2022/03/11 04:25:16;;;;;;;79.38;47.40;;;-3.80;29.30;;;;;;5015137;28;20108;-75
2022/03/11 04:27:44;;;;;;;79.43;44.30;;;-3.80;48.70;;;;;;5015982;28;20504;-75
2022/03/11 04:30:12;;;;;;;79.20;44.28;;;-3.80;58.40;;;;;;5008551;28;20122;-75
2022/03/11 04:32:40;;;;;;;76.57;41.58;;;-3.80;81.50;;;;;;5016743;28;20096;-75
2022/03/11 04:35:08;;;;;;;77.30;43.20;;;-3.80;86.50;;;;;;5008683;28;20120;-75
2022/03/11 04:37:35;;;;;;;71.90;42.30;;;-3.80;97.40;;;;;;5015280;28;20041;-75
2022/03/11 04:40:03;;;;;;;86.10;48.90;;;-3.80;97.30;;;;;;5015393;28;20501;-75
2022/03/11 04:42:32;;;;;;;99.82;53.92;;;-3.90;99.90;;;;;;5015859;28;20091;-75
2022/03/11 04:45:00;;;;;;;77.30;42.92;;;-4.00;99.90;;;;;;5001084;28;20395;-76
2022/03/11 04:47:28;;;;;;;85.43;47.15;;;-4.00;99.90;;;;;;4996990;28;20069;-76
2022/03/11 04:49:55;;;;;;;92.00;52.10;;;-4.10;99.90;;;;;;4997080;28;20038;-76
2022/03/11 04:52:23;;;;;;;99.25;53.90;;;-4.10;99.90;;;;;;4996084;28;20149;-76
2022/03/11 04:54:50;;;;;;;98.82;53.92;;;-4.10;99.90;;;;;;4997041;28;20078;-76
2022/03/11 04:57:18;;;;;;;98.93;53.05;;;-4.00;99.90;;;;;;4997241;28;20038;-76
2022/03/11 04:59:47;;;;;;;96.97;52.45;;;-4.00;99.90;;;;;;5010341;28;20516;-75
2022/03/11 05:02:15;;;;;;;113.43;60.40;;;-4.00;99.90;;;;;;5015677;28;20060;-75
2022/03/11 05:04:42;;;;;;;105.47;55.05;;;-4.00;99.90;;;;;;5016200;28;20065;-76
2022/03/11 05:07:10;;;;;;;95.90;51.70;;;-4.00;99.90;;;;;;5016782;28;20057;-76
2022/03/11 05:09:38;;;;;;;89.25;49.38;;;-4.10;99.90;;;;;;5015453;28;20053;-76
2022/03/11 05:12:06;;;;;;;93.38;50.55;;;-4.10;99.90;;;;;;5016169;28;20038;-76
2022/03/11 05:14:34;;;;;;;97.35;53.28;;;-4.20;99.90;;;;;;5016216;28;20365;-76
2022/03/11 05:17:03;;;;;;;91.65;48.65;;;-4.20;99.90;;;;;;5016959;28;20053;-75
2022/03/11 05:19:40;;;;;;;92.88;49.55;;;-4.20;99.90;;;;;;5008423;28;20585;-76
2022/03/11 05:22:08;;;;;;;93.07;49.70;;;-4.20;99.90;;;;;;5015089;28;20104;-76
2022/03/11 05:24:38;;;;;;;96.10;51.65;;;-4.30;99.90;;;;;;5014824;28;20038;-75
2022/03/11 05:27:07;;;;;;;95.63;53.00;;;-4.20;99.90;;;;;;5084376;22;20071;-74
2022/03/11 05:29:39;;;;;;;89.57;51.25;;;-4.20;99.90;;;;;;5082232;28;20143;-74
2022/03/11 05:32:14;;;;;;;89.88;52.25;;;-4.20;99.90;;;;;;5073714;28;20040;-74
2022/03/11 05:34:43;;;;;;;84.45;48.72;;;-4.10;99.90;;;;;;5079326;28;20036;-74
2022/03/11 05:37:11;;;;;;;84.47;47.97;;;-4.10;99.90;;;;;;5077519;28;20052;-74
2022/03/11 05:39:39;;;;;;;74.15;44.53;;;-4.00;99.90;;;;;;5067651;28;20037;-74
2022/03/11 05:42:11;;;;;;;85.45;46.95;;;-4.00;99.90;;;;;;5074402;28;20499;-74
2022/03/11 05:44:39;;;;;;;96.57;49.95;;;-4.00;99.90;;;;;;5073398;28;20071;-73
2022/03/11 05:47:09;;;;;;;82.53;47.22;;;-4.00;99.90;;;;;;5073742;28;20098;-74
2022/03/11 05:49:40;;;;;;;98.22;55.00;;;-4.00;99.90;;;;;;5073322;28;20068;-73
2022/03/11 05:52:08;;;;;;;112.47;56.53;;;-3.90;99.90;;;;;;5074841;28;20044;-74
2022/03/11 05:54:37;;;;;;;117.82;60.17;;;-3.80;99.90;;;;;;5072675;28;20055;-74
2022/03/11 05:57:06;;;;;;;150.32;77.32;;;-3.80;99.90;;;;;;5071949;28;20120;-74
2022/03/11 05:59:34;;;;;;;155.57;82.05;;;-3.80;99.90;;;;;;5073130;28;20125;-74
2022/03/11 06:02:03;;;;;;;157.10;79.50;;;-3.70;99.90;;;;;;5074413;28;20044;-74
2022/03/11 06:04:30;;;;;;;130.10;68.40;;;-3.50;99.90;;;;;;5056590;28;20044;-74
2022/03/11 06:06:59;;;;;;;100.70;54.70;;;-3.30;99.90;;;;;;5077218;28;20264;-73
2022/03/11 06:09:27;;;;;;;100.97;49.92;;;-3.40;99.90;;;;;;5081524;28;20042;-75
2022/03/11 06:11:55;;;;;;;87.90;49.30;;;-3.30;99.90;;;;;;5079494;28;20097;-74
2022/03/11 06:14:24;;;;;;;92.55;51.25;;;-3.20;99.90;;;;;;5073095;28;20552;-73
2022/03/11 06:16:51;;;;;;;92.05;50.63;;;-3.10;99.90;;;;;;5074073;28;20495;-74
2022/03/11 06:19:19;;;;;;;108.10;52.88;;;-3.00;99.90;;;;;;5072505;28;20043;-75
2022/03/11 06:21:47;;;;;;;108.15;53.92;;;-2.90;99.90;;;;;;5073511;28;20048;-74
2022/03/11 06:24:15;;;;;;;117.63;54.65;;;-2.70;94.30;;;;;;5073211;28;20483;-74
2022/03/11 06:26:43;;;;;;;106.53;55.33;;;-2.60;82.80;;;;;;5073272;28;20052;-74
2022/03/11 06:29:12;;;;;;;135.60;69.18;;;-2.40;73.30;;;;;;5072500;28;20044;-74
2022/03/11 06:31:40;;;;;;;163.65;78.68;;;-2.20;59.20;;;;;;5073113;28;20071;-74
2022/03/11 06:34:08;;;;;;;184.82;87.72;;;-1.90;45.10;;;;;;5070166;28;20043;-73
2022/03/11 06:36:36;;;;;;;173.90;84.07;;;-1.60;25.10;;;;;;5073674;28;20078;-74
2022/03/11 06:39:07;;;;;;;158.80;76.65;;;-1.30;10.40;;;;;;5073660;28;20410;-75
2022/03/11 06:41:36;;;;;;;141.98;70.35;;;-1.10;1.00;;;;;;5072531;28;20128;-74
2022/03/11 06:44:04;;;;;;;141.32;68.45;;;-0.80;1.00;;;;;;5074068;28;20040;-73
2022/03/11 06:46:31;;;;;;;141.52;71.43;;;-0.70;1.00;;;;;;5052861;28;20135;-75
2022/03/11 06:48:58;;;;;;;143.15;70.10;;;-0.50;1.00;;;;;;5057145;28;20056;-75
2022/03/11 06:51:26;;;;;;;142.75;70.38;;;-0.30;1.00;;;;;;5058698;28;20477;-74
2022/03/11 06:53:53;;;;;;;136.40;65.63;;;-0.20;1.00;;;;;;5070166;28;20052;-74
2022/03/11 06:56:21;;;;;;;115.43;57.25;;;-0.10;1.00;;;;;;5073990;28;20105;-73
2022/03/11 06:58:51;;;;;;;102.55;52.13;;;0.20;1.00;;;;;;5072099;28;20056;-73
2022/03/11 07:01:18;;;;;;;92.75;49.25;;;0.30;1.00;;;;;;5073422;28;20124;-74
2022/03/11 07:03:46;;;;;;;90.38;42.25;;;0.20;1.00;;;;;;5073278;28;20048;-74
2022/03/11 07:06:14;;;;;;;98.97;48.70;;;0.10;1.00;;;;;;5073381;28;20040;-74
2022/03/11 07:08:41;;;;;;;93.50;45.80;;;0.40;1.00;;;;;;5069515;28;20033;-74
2022/03/11 07:11:09;;;;;;;73.85;37.28;;;0.70;1.00;;;;;;5058074;28;20049;-75
2022/03/11 07:13:36;;;;;;;84.50;39.80;;;0.90;1.00;;;;;;5073056;28;20048;-74
2022/03/11 07:16:06;;;;;;;73.43;36.47;;;1.10;1.00;;;;;;5075282;28;20067;-75
2022/03/11 07:18:33;;;;;;;53.30;29.33;;;1.40;1.00;;;;;;5056926;28;20609;-74
2022/03/11 07:21:01;;;;;;;72.45;36.88;;;1.50;1.00;;;;;;5076936;28;20094;-75
2022/03/11 07:23:29;;;;;;;52.35;27.60;;;1.60;1.00;;;;;;5073968;28;20106;-72
2022/03/11 07:25:57;;;;;;;44.95;24.92;;;1.80;1.00;;;;;;5075444;28;20455;-73
2022/03/11 07:28:27;;;;;;;53.47;25.17;;;2.00;1.00;;;;;;5072484;28;20063;-73
2022/03/11 07:30:54;;;;;;;52.40;23.80;;;1.80;1.00;;;;;;5074685;28;20036;-76
2022/03/11 07:33:23;;;;;;;42.05;21.50;;;1.80;1.00;;;;;;5073018;28;20052;-74
2022/03/11 07:35:51;;;;;;;41.72;20.67;;;1.70;1.00;;;;;;5069461;28;20052;-75
2022/03/11 07:38:18;;;;;;;36.95;19.20;;;1.70;1.00;;;;;;5074872;28;20044;-74
2022/03/11 07:40:46;;;;;;;33.35;18.73;;;1.60;1.00;;;;;;5076601;28;20391;-77
2022/03/11 07:43:13;;;;;;;40.00;20.33;;;1.70;1.00;;;;;;5076146;28;20060;-76
2022/03/11 07:45:41;;;;;;;35.83;18.20;;;1.70;1.00;;;;;;5078520;28;20064;-75
2022/03/11 07:48:09;;;;;;;34.72;17.90;;;1.80;1.00;;;;;;5077052;28;20044;-75
2022/03/11 07:50:38;;;;;;;34.88;17.48;;;1.80;1.00;;;;;;5076594;28;20414;-75
2022/03/11 07:53:06;;;;;;;43.78;19.10;;;1.80;1.00;;;;;;5075390;28;20108;-74
2022/03/11 07:55:34;;;;;;;30.73;16.23;;;2.00;1.00;;;;;;5075823;28;20446;-74
2022/03/11 07:58:02;;;;;;;36.28;19.42;;;1.70;1.00;;;;;;5076472;28;20457;-73
2022/03/11 08:00:29;;;;;;;31.92;17.67;;;1.90;1.00;;;;;;5075356;28;20055;-74
2022/03/11 08:02:57;;;;;;;27.48;15.38;;;2.00;1.00;;;;;;5074987;28;20048;-73
2022/03/11 08:05:25;;;;;;;29.50;14.90;;;2.10;1.00;;;;;;5075419;28;20471;-74
2022/03/11 08:07:54;;;;;;;27.67;15.30;;;2.30;1.00;;;;;;5074777;28;20045;-74
2022/03/11 08:10:22;;;;;;;27.75;15.88;;;2.50;1.00;;;;;;5074997;28;20432;-75
2022/03/11 08:12:50;;;;;;;26.73;15.75;;;2.40;1.00;;;;;;5074939;28;20044;-74
2022/03/11 08:15:18;;;;;;;24.48;14.10;;;2.40;1.00;;;;;;5059932;28;20051;-74
2022/03/11 08:17:46;;;;;;;28.52;14.73;;;2.40;1.00;;;;;;5075910;28;20033;-74
2022/03/11 08:20:15;;;;;;;24.30;13.88;;;2.50;1.00;;;;;;5075260;28;20036;-74
2022/03/11 08:22:42;;;;;;;34.97;14.10;;;2.40;1.00;;;;;;5075814;28;20048;-74
2022/03/11 08:25:14;;;;;;;24.20;16.27;;;2.20;1.00;;;;;;5074679;28;20075;-75
2022/03/11 08:27:41;;;;;;;26.85;14.20;;;2.30;1.00;;;;;;5076053;28;20040;-74
2022/03/11 08:30:11;;;;;;;26.52;14.10;;;2.50;1.00;;;;;;5075714;28;20098;-74
2022/03/11 08:32:40;;;;;;;26.27;13.32;;;2.70;1.00;;;;;;5075580;28;20048;-73
2022/03/11 08:35:09;;;;;;;27.58;14.40;;;2.60;1.00;;;;;;5066891;28;20127;-74
2022/03/11 08:37:37;;;;;;;23.45;14.73;;;2.50;1.00;;;;;;5073987;28;20048;-74
2022/03/11 08:40:06;;;;;;;28.42;15.15;;;2.60;1.00;;;;;;5075209;28;20571;-74
2022/03/11 08:42:35;;;;;;;34.55;15.30;;;2.80;1.00;;;;;;5075447;28;20049;-74
2022/03/11 08:45:03;;;;;;;30.67;15.45;;;3.00;1.00;;;;;;5075259;28;20045;-74
2022/03/11 08:47:32;;;;;;;30.88;15.20;;;3.00;1.00;;;;;;5075643;28;20056;-74
2022/03/11 08:50:00;;;;;;;25.13;15.13;;;2.80;1.00;;;;;;5074449;28;20423;-74
2022/03/11 08:52:28;;;;;;;33.38;15.60;;;2.50;1.00;;;;;;5074651;28;20469;-75
2022/03/11 08:54:56;;;;;;;27.10;14.52;;;2.60;1.00;;;;;;5075071;28;20053;-74
2022/03/11 08:57:24;;;;;;;25.90;14.20;;;2.60;1.00;;;;;;5077986;28;20047;-74
2022/03/11 08:59:54;;;;;;;28.67;14.57;;;2.60;1.00;;;;;;5080105;28;20106;-75
2022/03/11 09:02:22;;;;;;;28.92;14.80;;;2.60;1.00;;;;;;5055744;28;20045;-76
2022/03/11 09:04:49;;;;;;;33.30;15.68;;;2.60;1.00;;;;;;5062237;28;20040;-76
2022/03/11 09:07:17;;;;;;;28.15;15.38;;;2.60;1.00;;;;;;5074001;28;20071;-75
2022/03/11 09:09:44;;;;;;;27.65;15.40;;;2.80;1.00;;;;;;5073729;28;20102;-75
2022/03/11 09:12:12;;;;;;;26.60;15.57;;;2.80;1.00;;;;;;5072671;28;20051;-75
2022/03/11 09:14:39;;;;;;;34.00;15.25;;;3.00;1.00;;;;;;5064890;28;20045;-75
2022/03/11 09:17:08;;;;;;;27.50;17.73;;;3.10;1.00;;;;;;5073405;28;20033;-75
2022/03/11 09:19:37;;;;;;;27.38;14.82;;;3.00;1.00;;;;;;5063337;28;20029;-76
2022/03/11 09:22:05;;;;;;;32.03;17.38;;;3.20;1.00;;;;;;5065500;28;20155;-75
2022/03/11 09:24:33;;;;;;;26.33;15.00;;;3.30;1.00;;;;;;5055019;28;20147;-75
2022/03/11 09:27:00;;;;;;;27.08;13.88;;;3.40;1.00;;;;;;5072430;28;20080;-74
2022/03/11 09:29:28;;;;;;;28.02;14.27;;;3.40;1.00;;;;;;5068959;28;20048;-75
2022/03/11 09:31:56;;;;;;;23.00;12.70;;;3.40;1.00;;;;;;5073502;28;20072;-74
2022/03/11 09:34:26;;;;;;;19.83;10.43;;;3.30;1.00;;;;;;5074120;28;20041;-74
2022/03/11 09:36:54;;;;;;;17.50;10.70;;;3.10;1.00;;;;;;5073251;28;20541;-76
2022/03/11 09:39:21;;;;;;;18.45;10.75;;;3.10;1.00;;;;;;5073325;28;20090;-75
2022/03/11 09:41:50;;;;;;;14.65;9.02;;;3.50;1.00;;;;;;5072113;28;20048;-74
2022/03/11 09:44:19;;;;;;;17.50;9.98;;;3.70;1.00;;;;;;5073701;28;20409;-74
2022/03/11 09:46:47;;;;;;;20.02;11.10;;;3.90;1.00;;;;;;5073337;28;20052;-75
2022/03/11 09:49:16;;;;;;;19.30;9.18;;;4.20;1.00;;;;;;5073476;28;20044;-74
2022/03/11 09:51:47;;;;;;;14.10;8.30;;;4.30;1.00;;;;;;5077181;28;20033;-75
2022/03/11 09:54:16;;;;;;;12.98;8.40;;;4.20;1.00;;;;;;5080701;28;20396;-75
2022/03/11 09:56:45;;;;;;;16.98;8.20;;;3.80;1.00;;;;;;5077329;28;20131;-75
2022/03/11 09:59:14;;;;;;;13.15;7.82;;;3.80;1.00;;;;;;5076349;28;20045;-76
2022/03/11 10:01:41;;;;;;;10.60;6.93;;;4.00;1.00;;;;;;5084773;28;20072;-75
2022/03/11 10:04:10;;;;;;;9.85;5.90;;;4.00;1.00;;;;;;5075072;28;20511;-75
2022/03/11 10:06:42;;;;;;;9.60;5.47;;;4.00;1.00;;;;;;5073961;28;20345;-76
2022/03/11 10:09:31;;;;;;;11.57;5.88;;;3.90;1.00;;;;;;5071132;28;20086;-75
2022/03/11 10:12:00;;;;;;;13.35;6.90;;;3.60;1.00;;;;;;5073975;28;20123;-75
2022/03/11 10:14:32;;;;;;;14.55;7.85;;;3.70;1.00;;;;;;5072383;28;20052;-74
2022/03/11 10:17:00;;;;;;;12.75;6.38;;;3.70;1.00;;;;;;5073639;28;20488;-76
2022/03/11 10:19:28;;;;;;;13.85;6.50;;;3.80;1.00;;;;;;5073318;28;20071;-74
2022/03/11 10:21:58;;;;;;;11.18;5.35;;;4.00;1.00;;;;;;5055820;28;20492;-75
2022/03/11 10:24:28;;;;;;;12.18;6.57;;;4.10;1.00;;;;;;5053839;28;20067;-75
2022/03/11 10:26:58;;;;;;;14.13;5.85;;;4.10;1.00;;;;;;5052954;28;20424;-75
2022/03/11 10:29:31;;;;;;;11.65;5.63;;;4.10;1.00;;;;;;5072343;28;20349;-75
2022/03/11 10:32:00;;;;;;;10.95;6.55;;;4.20;1.00;;;;;;5073414;28;20133;-75
2022/03/11 10:34:31;;;;;;;14.45;6.35;;;4.30;1.00;;;;;;5071797;28;20055;-74
2022/03/11 10:37:00;;;;;;;9.38;5.55;;;4.30;1.00;;;;;;5072576;28;20094;-74
2022/03/11 10:39:31;;;;;;;10.55;6.45;;;4.40;1.00;;;;;;5074456;28;20060;-75
2022/03/11 10:42:00;;;;;;;9.52;5.53;;;4.20;1.00;;;;;;5075259;28;20079;-75
2022/03/11 10:44:29;;;;;;;10.88;7.00;;;4.10;1.00;;;;;;5073784;28;20558;-76
2022/03/11 10:47:18;;;;;;;11.45;5.68;;;4.00;1.00;;;;;;5074609;28;20051;-75
2022/03/11 10:49:49;;;;;;;12.80;6.90;;;3.90;1.00;;;;;;5065919;28;20106;-75
2022/03/11 10:52:30;;;;;;;11.13;6.55;;;3.90;1.00;;;;;;5079726;28;20069;-74
2022/03/11 10:55:02;;;;;;;12.23;6.50;;;3.90;1.00;;;;;;5079759;28;20064;-75
2022/03/11 10:57:36;;;;;;;10.32;6.32;;;4.10;1.00;;;;;;5074975;28;20048;-75
2022/03/11 11:00:22;;;;;;;16.38;7.65;;;4.30;1.00;;;;;;5074181;28;20033;-75
2022/03/11 11:02:50;;;;;;;13.30;6.63;;;4.30;1.00;;;;;;5079808;28;20071;-76
2022/03/11 11:05:18;;;;;;;13.52;7.32;;;4.20;1.00;;;;;;5071364;28;20048;-76
2022/03/11 11:07:46;;;;;;;9.48;6.32;;;4.10;1.00;;;;;;5065242;28;20047;-75
2022/03/11 11:10:17;;;;;;;11.73;6.72;;;4.10;1.00;;;;;;5057629;28;20129;-76
2022/03/11 11:12:46;;;;;;;10.68;7.03;;;4.20;1.00;;;;;;5073217;28;20056;-76
2022/03/11 11:15:15;;;;;;;12.88;7.15;;;4.30;1.00;;;;;;5073720;28;20041;-76
2022/03/11 11:17:46;;;;;;;11.43;6.15;;;4.20;1.00;;;;;;5073437;28;20037;-76
2022/03/11 11:20:21;;;;;;;9.60;5.38;;;4.00;1.00;;;;;;5071504;28;20045;-76
2022/03/11 11:22:52;;;;;;;10.15;6.70;;;3.70;1.00;;;;;;5070994;28;20048;-78
2022/03/11 11:25:24;;;;;;;13.48;6.68;;;3.60;1.00;;;;;;5070173;28;20053;-75
2022/03/11 11:27:53;;;;;;;14.02;6.55;;;3.80;1.00;;;;;;5072380;28;20051;-75
2022/03/11 11:30:22;;;;;;;9.68;6.07;;;4.00;1.00;;;;;;5073598;28;20094;-75
2022/03/11 11:32:52;;;;;;;10.00;6.13;;;4.20;1.00;;;;;;5073388;28;20139;-75
2022/03/11 11:35:31;;;;;;;11.90;6.15;;;4.20;1.00;;;;;;5073997;28;20053;-74
2022/03/11 11:38:00;;;;;;;12.45;6.28;;;4.30;1.00;;;;;;5074581;28;20053;-75
2022/03/11 11:40:32;;;;;;;12.38;5.75;;;4.40;1.00;;;;;;5074129;28;20128;-75
2022/03/11 11:43:29;;;;;;;12.50;6.25;;;4.50;1.00;;;;;;5077416;28;20086;-75
2022/03/11 11:46:09;;;;;;;9.80;5.60;;;4.40;1.00;;;;;;5072719;28;20044;-74
2022/03/11 11:48:59;;;;;;;11.95;7.05;;;3.50;1.00;;;;;;5066814;28;20051;-75
2022/03/11 11:52:01;;;;;;;14.20;7.32;;;3.50;1.00;;;;;;5071158;28;20050;-76
2022/03/11 11:54:45;;;;;;;10.95;6.13;;;3.50;1.00;;;;;;5070547;28;20044;-74
2022/03/11 11:57:35;;;;;;;16.95;6.63;;;3.50;1.00;;;;;;5076421;28;20047;-76
2022/03/11 12:00:08;;;;;;;10.80;6.45;;;3.70;1.00;;;;;;5076428;28;20028;-76
2022/03/11 12:02:43;;;;;;;9.75;5.80;;;3.90;1.00;;;;;;5076381;28;20056;-76
2022/03/11 12:05:53;;;;;;;13.70;6.57;;;3.90;1.00;;;;;;5076112;28;20131;-75
2022/03/11 12:08:51;;;;;;;10.30;6.55;;;3.80;1.00;;;;;;5076673;28;20438;-75
2022/03/11 12:11:42;;;;;;;9.88;6.10;;;3.90;1.00;;;;;;5076263;28;20067;-75
2022/03/11 12:14:11;;;;;;;9.55;6.30;;;3.80;1.00;;;;;;5074351;28;20111;-75
2022/03/11 12:17:12;;;;;;;12.07;6.63;;;4.00;1.00;;;;;;5074925;28;20040;-74
2022/03/11 12:19:45;;;;;;;11.15;6.28;;;3.80;1.00;;;;;;4983170;28;20113;-75
2022/03/11 12:22:30;;;;;;;11.48;7.18;;;3.80;1.00;;;;;;4987917;28;20050;-74
2022/03/11 12:25:02;;;;;;;11.60;6.20;;;3.80;1.00;;;;;;4994655;28;20429;-74
2022/03/11 12:27:56;;;;;;;12.75;6.18;;;3.70;1.00;;;;;;5010613;28;20084;-75
2022/03/11 12:30:26;;;;;;;10.88;6.13;;;3.60;1.00;;;;;;4997845;28;20612;-74
2022/03/11 12:32:54;;;;;;;12.27;5.35;;;3.60;1.00;;;;;;5013146;28;20046;-74
2022/03/11 12:35:22;;;;;;;10.88;6.32;;;3.40;1.00;;;;;;5014018;28;20050;-75
2022/03/11 12:37:50;;;;;;;10.90;6.88;;;3.70;1.00;;;;;;5015061;28;20088;-75
2022/03/11 12:40:21;;;;;;;9.98;6.38;;;3.90;1.00;;;;;;5018310;28;20117;-75
2022/03/11 12:42:48;;;;;;;11.18;6.55;;;4.00;1.00;;;;;;5002793;28;20599;-75
2022/03/11 12:45:36;;;;;;;12.00;6.32;;;4.10;1.00;;;;;;5016217;28;20062;-76
2022/03/11 12:48:05;;;;;;;15.85;7.20;;;4.20;1.00;;;;;;5003139;28;22113;-76
2022/03/11 12:50:32;;;;;;;13.20;6.43;;;4.20;1.00;;;;;;5050171;28;20049;-76
2022/03/11 12:53:06;;;;;;;11.38;6.45;;;4.20;1.00;;;;;;5077091;28;20063;-75